Time;durP1;ratioP1;P1;durP2;ratioP2;P2;SDS_P1;SDS_P2;PMS_P1;PMS_P2;Temp;Humidity;BMP_temperature;BMP_pressure;BME280_temperature;BME280_humidity;BME280_pressure;Samples;Min_cycle;Max_cycle;Signal;HPM_P1;HPM_P2
2022/07/02 00:01:49;;;;;;;2.88;1.05;;;15.30;97.00;;;;;;4181531;28;20084;-90
2022/07/02 00:03:56;;;;;;;1.83;0.95;;;15.30;97.30;;;;;;4165998;28;20804;-90
2022/07/02 00:05:59;;;;;;;7.10;1.10;;;15.20;97.30;;;;;;4182690;28;20052;-90
2022/07/02 00:08:02;;;;;;;2.40;0.82;;;15.20;97.70;;;;;;4181040;28;20136;-90
2022/07/02 00:10:05;;;;;;;4.22;1.40;;;15.20;97.60;;;;;;4164798;28;20456;-90
2022/07/02 00:12:09;;;;;;;4.68;1.10;;;15.10;97.80;;;;;;4165016;28;20096;-91
2022/07/02 00:14:11;;;;;;;3.35;1.15;;;15.20;98.00;;;;;;4164511;28;20117;-89
2022/07/02 00:16:13;;;;;;;4.72;1.00;;;15.10;98.20;;;;;;4181411;28;20051;-90
2022/07/02 00:18:15;;;;;;;4.10;1.20;;;15.10;98.10;;;;;;4164095;28;20459;-90
2022/07/02 00:20:23;;;;;;;4.93;0.77;;;15.10;98.10;;;;;;4181213;28;20052;-91
2022/07/02 00:22:27;;;;;;;7.45;1.25;;;15.10;98.20;;;;;;4181054;28;20041;-89
2022/07/02 00:24:28;;;;;;;4.10;1.10;;;15.10;98.20;;;;;;4182313;28;20436;-90
2022/07/02 00:26:33;;;;;;;4.18;1.60;;;15.00;98.20;;;;;;4164020;28;20042;-90
2022/07/02 00:28:42;;;;;;;1.65;1.23;;;15.10;98.50;;;;;;4180899;28;20428;-90
2022/07/02 00:30:45;;;;;;;3.47;1.48;;;15.10;98.40;;;;;;4180643;28;20547;-90
2022/07/02 00:32:48;;;;;;;4.90;1.48;;;15.10;98.30;;;;;;4180570;28;20124;-90
2022/07/02 00:34:50;;;;;;;3.15;1.10;;;15.10;98.30;;;;;;4166888;28;20061;-90
2022/07/02 00:36:55;;;;;;;2.83;0.90;;;15.10;98.30;;;;;;4184260;28;20045;-89
2022/07/02 00:38:57;;;;;;;2.88;1.00;;;15.10;98.40;;;;;;4180339;28;20493;-90
2022/07/02 00:41:00;;;;;;;5.97;1.33;;;15.10;98.40;;;;;;4163745;28;20049;-90
2022/07/02 00:43:01;;;;;;;4.28;1.10;;;15.00;98.50;;;;;;4179871;28;20483;-90
2022/07/02 00:45:03;;;;;;;2.85;1.17;;;15.00;98.40;;;;;;4180178;28;20049;-90
2022/07/02 00:47:07;;;;;;;3.03;1.13;;;15.00;98.40;;;;;;4180056;28;20053;-90
2022/07/02 00:49:09;;;;;;;4.57;1.40;;;15.00;98.50;;;;;;4164206;28;20072;-90
2022/07/02 00:51:17;;;;;;;7.25;1.20;;;15.00;98.50;;;;;;4180328;28;20060;-90
2022/07/02 00:53:20;;;;;;;3.60;1.27;;;15.00;98.60;;;;;;4163605;28;20052;-90
2022/07/02 00:55:21;;;;;;;2.90;1.10;;;14.90;98.70;;;;;;4179783;28;20063;-90
2022/07/02 00:57:27;;;;;;;7.40;1.40;;;14.90;98.70;;;;;;4163495;28;20132;-89
2022/07/02 00:59:29;;;;;;;5.38;1.40;;;14.90;98.70;;;;;;4180469;28;20132;-90
2022/07/02 01:01:31;;;;;;;3.65;1.70;;;14.90;98.90;;;;;;4180112;28;20037;-89
2022/07/02 01:03:35;;;;;;;3.13;1.45;;;14.90;99.00;;;;;;4181165;28;20045;-90
2022/07/02 01:05:38;;;;;;;2.70;1.17;;;14.80;99.50;;;;;;4181295;28;20069;-88
2022/07/02 01:07:44;;;;;;;3.78;1.33;;;14.80;99.90;;;;;;4164059;28;20057;-90
2022/07/02 01:10:16;;;;;;;3.38;1.15;;;14.80;99.70;;;;;;4163944;28;20100;-90
2022/07/02 01:12:21;;;;;;;3.55;1.45;;;14.70;99.90;;;;;;4163819;28;20049;-88
2022/07/02 01:14:29;;;;;;;6.30;1.48;;;14.70;99.60;;;;;;4181289;28;20115;-91
2022/07/02 01:16:40;;;;;;;5.57;1.55;;;14.60;99.90;;;;;;4166477;28;20501;-93
2022/07/02 01:18:58;;;;;;;4.25;1.23;;;14.70;99.90;;;;;;4166598;28;20111;-92
2022/07/02 01:21:00;;;;;;;4.00;1.30;;;14.70;99.90;;;;;;4168616;28;20046;-92
2022/07/02 01:23:10;;;;;;;5.85;1.40;;;14.70;99.90;;;;;;4166815;28;20149;-92
2022/07/02 01:25:13;;;;;;;4.63;1.58;;;14.70;99.70;;;;;;4166520;28;20099;-91
2022/07/02 01:27:22;;;;;;;3.67;1.23;;;14.70;99.90;;;;;;4176760;28;20092;-92
2022/07/02 01:29:46;;;;;;;;;;;14.70;99.90;;;;;;4165546;28;20045;-92
2022/07/02 01:31:48;;;;;;;5.70;1.40;;;14.70;99.90;;;;;;4165293;28;19921;-93
2022/07/02 01:33:55;;;;;;;6.15;1.20;;;14.70;99.80;;;;;;4165092;28;20064;-92
2022/07/02 01:35:56;;;;;;;3.97;1.15;;;14.60;99.90;;;;;;4165445;28;20131;-92
2022/07/02 01:37:58;;;;;;;5.97;1.65;;;14.60;99.90;;;;;;4166011;28;20089;-92
2022/07/02 01:40:09;;;;;;;7.47;1.60;;;14.60;99.80;;;;;;4165319;28;20045;-93
2022/07/02 01:42:16;;;;;;;4.60;1.50;;;14.60;99.90;;;;;;4184353;28;20049;-92
2022/07/02 01:44:17;;;;;;;3.63;1.38;;;14.60;99.90;;;;;;4166930;28;20124;-92
2022/07/02 01:46:45;;;;;;;2.40;1.48;;;14.60;99.90;;;;;;4168209;28;20045;-92
2022/07/02 01:48:59;;;;;;;7.15;1.60;;;14.60;99.90;;;;;;4168331;28;20478;-92
2022/07/02 01:51:11;;;;;;;6.90;2.58;;;14.60;99.90;;;;;;4168251;28;20053;-92
2022/07/02 01:53:20;;;;;;;5.78;1.95;;;14.60;99.90;;;;;;4167409;28;20041;-92
2022/07/02 01:55:21;;;;;;;4.88;1.85;;;14.50;99.90;;;;;;4167781;28;20132;-93
2022/07/02 01:57:52;;;;;;;5.55;1.55;;;14.50;99.90;;;;;;4168453;28;20049;-93
2022/07/02 01:59:59;;;;;;;1.90;1.15;;;14.60;99.90;;;;;;4167650;28;20532;-93
2022/07/02 02:02:05;;;;;;;3.55;1.73;;;14.50;99.90;;;;;;4168119;28;20045;-92
2022/07/02 02:04:23;;;;;;;6.38;1.42;;;14.50;99.90;;;;;;4167901;28;20445;-93
2022/07/02 02:06:39;;;;;;;3.25;1.38;;;14.50;99.90;;;;;;4167422;28;20540;-93
2022/07/02 02:09:10;;;;;;;5.45;1.48;;;14.40;99.90;;;;;;4167474;28;20545;-92
2022/07/02 02:11:28;;;;;;;3.45;1.25;;;14.40;99.90;;;;;;4167808;28;20479;-93
2022/07/02 02:13:37;;;;;;;5.35;2.13;;;14.40;99.90;;;;;;4167482;28;20044;-92
2022/07/02 02:15:45;;;;;;;3.47;1.25;;;14.40;99.90;;;;;;4167855;28;20053;-92
2022/07/02 02:17:53;;;;;;;4.38;1.60;;;14.40;99.90;;;;;;4167107;28;20048;-93
2022/07/02 02:19:56;;;;;;;3.83;1.58;;;14.40;99.90;;;;;;4167217;28;20456;-93
2022/07/02 02:22:11;;;;;;;4.18;1.63;;;14.40;99.90;;;;;;4167357;28;20391;-93
2022/07/02 02:24:19;;;;;;;6.57;1.33;;;14.40;99.90;;;;;;4167357;28;20053;-92
2022/07/02 02:26:33;;;;;;;3.50;1.30;;;14.40;99.90;;;;;;4166857;28;20422;-91
2022/07/02 02:28:36;;;;;;;4.07;1.15;;;14.40;99.90;;;;;;4167003;28;20464;-92
2022/07/02 02:30:55;;;;;;;5.45;1.95;;;14.40;99.90;;;;;;4167126;28;20265;-93
2022/07/02 02:32:57;;;;;;;5.90;1.63;;;14.40;99.90;;;;;;4183540;28;20106;-92
2022/07/02 02:35:17;;;;;;;10.48;2.97;;;14.40;99.90;;;;;;4166675;28;20518;-93
2022/07/02 02:37:20;;;;;;;8.05;1.50;;;14.40;99.90;;;;;;4166745;28;20049;-93
2022/07/02 02:39:32;;;;;;;6.15;1.20;;;14.40;99.90;;;;;;4167010;28;20041;-92
2022/07/02 02:41:50;;;;;;;5.57;1.67;;;14.30;99.90;;;;;;4167242;28;20509;-93
2022/07/02 02:44:13;;;;;;;6.85;2.00;;;14.40;99.90;;;;;;4166941;28;20561;-92
2022/07/02 02:46:15;;;;;;;6.65;1.95;;;14.40;99.90;;;;;;4166880;28;20092;-92
2022/07/02 02:48:30;;;;;;;4.30;1.35;;;14.30;99.90;;;;;;4168129;28;20473;-92
2022/07/02 02:50:41;;;;;;;2.05;1.27;;;14.40;99.90;;;;;;4168176;28;20060;-93
2022/07/02 02:52:49;;;;;;;4.72;1.77;;;14.40;99.90;;;;;;4166248;28;20492;-92
2022/07/02 02:54:57;;;;;;;6.43;1.77;;;14.40;99.90;;;;;;4167530;28;20077;-93
2022/07/02 02:56:59;;;;;;;5.25;1.38;;;14.40;99.90;;;;;;4167132;28;20481;-92
2022/07/02 02:59:12;;;;;;;5.60;1.15;;;14.40;99.90;;;;;;4167297;28;20277;-93
2022/07/02 03:01:13;;;;;;;4.45;1.23;;;14.10;99.90;;;;;;4167885;28;20084;-92
2022/07/02 03:03:24;;;;;;;8.32;1.38;;;14.30;99.90;;;;;;4167060;28;20073;-93
2022/07/02 03:05:27;;;;;;;4.45;1.50;;;14.40;99.90;;;;;;4183300;28;20136;-92
2022/07/02 03:07:44;;;;;;;7.85;1.35;;;14.20;99.90;;;;;;4166269;28;20117;-92
2022/07/02 03:09:46;;;;;;;3.03;1.20;;;14.40;99.90;;;;;;4166390;28;20088;-93
2022/07/02 03:11:52;;;;;;;7.93;1.42;;;14.40;99.90;;;;;;4166309;28;20128;-92
2022/07/02 03:13:55;;;;;;;5.95;1.40;;;14.30;99.90;;;;;;4166610;28;20041;-92
2022/07/02 03:16:03;;;;;;;2.97;1.17;;;14.40;99.90;;;;;;4167090;28;20084;-92
2022/07/02 03:18:04;;;;;;;4.93;1.08;;;14.40;99.90;;;;;;4166860;28;20042;-92
2022/07/02 03:20:12;;;;;;;4.13;1.55;;;14.30;99.90;;;;;;4166290;28;20071;-92
2022/07/02 03:23:06;;;;;;;2.60;1.20;;;14.30;99.90;;;;;;4182923;28;20051;-93
2022/07/02 03:25:23;;;;;;;5.97;1.40;;;14.30;99.90;;;;;;4167943;28;20041;-92
2022/07/02 03:27:24;;;;;;;8.63;1.48;;;14.40;99.90;;;;;;4166712;28;20045;-92
2022/07/02 03:29:33;;;;;;;4.63;1.40;;;14.40;99.90;;;;;;4166597;28;20034;-92
2022/07/02 03:31:41;;;;;;;7.60;1.42;;;14.30;99.90;;;;;;4166703;28;20088;-92
2022/07/02 03:33:56;;;;;;;6.15;1.58;;;14.30;99.90;;;;;;4186640;28;20036;-91
2022/07/02 03:36:05;;;;;;;9.10;2.25;;;14.30;99.90;;;;;;4170157;28;20583;-93
2022/07/02 03:38:15;;;;;;;7.28;1.92;;;14.30;99.90;;;;;;4176407;28;20028;-91
2022/07/02 03:40:18;;;;;;;5.38;1.42;;;14.30;99.90;;;;;;4180542;28;20052;-92
2022/07/02 03:42:32;;;;;;;2.90;1.70;;;14.30;99.90;;;;;;4181039;28;20073;-93
2022/07/02 03:44:33;;;;;;;7.47;1.92;;;14.20;99.90;;;;;;4173298;28;20073;-91
2022/07/02 03:46:35;;;;;;;3.55;1.55;;;14.20;99.90;;;;;;4166346;28;20085;-91
2022/07/02 03:48:44;;;;;;;3.97;1.42;;;14.20;99.90;;;;;;4166523;28;20080;-92
2022/07/02 03:50:54;;;;;;;3.75;1.15;;;14.30;99.90;;;;;;4167061;28;20128;-92
2022/07/02 03:52:57;;;;;;;7.35;1.38;;;14.30;99.90;;;;;;4183469;28;20048;-92
2022/07/02 03:54:58;;;;;;;8.35;2.60;;;14.20;99.90;;;;;;4166167;28;20049;-92
2022/07/02 03:57:00;;;;;;;8.40;1.98;;;14.30;99.90;;;;;;4165758;28;20056;-92
2022/07/02 03:59:02;;;;;;;5.97;1.80;;;14.30;99.90;;;;;;4182497;28;20053;-91
2022/07/02 04:01:10;;;;;;;6.22;1.60;;;14.30;99.90;;;;;;4165970;28;20089;-91
2022/07/02 04:03:17;;;;;;;5.15;1.80;;;14.30;99.90;;;;;;4165238;28;20037;-92
2022/07/02 04:05:32;;;;;;;5.75;1.50;;;14.40;99.90;;;;;;4181978;28;20049;-91
2022/07/02 04:07:35;;;;;;;7.60;1.80;;;14.40;99.90;;;;;;4181675;28;20052;-91
2022/07/02 04:09:53;;;;;;;6.88;2.03;;;14.40;99.90;;;;;;4165324;28;20037;-92
2022/07/02 04:11:57;;;;;;;3.42;1.50;;;14.40;99.90;;;;;;4165317;28;20041;-92
2022/07/02 04:13:59;;;;;;;4.53;1.40;;;14.40;99.90;;;;;;4165450;28;20502;-92
2022/07/02 04:16:12;;;;;;;6.90;2.03;;;14.40;99.90;;;;;;4165998;28;20510;-92
2022/07/02 04:18:19;;;;;;;6.53;2.13;;;14.40;99.90;;;;;;4181559;28;20221;-92
2022/07/02 04:20:22;;;;;;;5.35;1.58;;;14.40;99.90;;;;;;4165472;28;20060;-91
2022/07/02 04:22:34;;;;;;;6.50;1.42;;;14.50;99.90;;;;;;4165883;28;20041;-92
2022/07/02 04:24:53;;;;;;;3.90;1.85;;;14.50;99.90;;;;;;4165226;28;20045;-91
2022/07/02 04:26:55;;;;;;;9.52;2.13;;;14.50;99.90;;;;;;4165127;28;20041;-92
2022/07/02 04:29:17;;;;;;;6.05;1.70;;;14.50;99.90;;;;;;4165309;28;20120;-92
2022/07/02 04:31:24;;;;;;;3.88;1.45;;;14.60;99.90;;;;;;4165224;28;20081;-92
2022/07/02 04:33:25;;;;;;;10.55;2.85;;;14.60;99.90;;;;;;4164957;28;20045;-92
2022/07/02 04:35:31;;;;;;;4.85;1.33;;;14.60;99.90;;;;;;4165093;28;20117;-90
2022/07/02 04:37:33;;;;;;;9.82;1.80;;;14.60;99.90;;;;;;4165075;28;20111;-90
2022/07/02 04:39:42;;;;;;;4.72;1.88;;;14.70;99.90;;;;;;4166528;28;20076;-91
2022/07/02 04:41:49;;;;;;;7.57;1.60;;;14.70;99.90;;;;;;4165053;28;20045;-91
2022/07/02 04:43:56;;;;;;;8.30;2.50;;;14.70;99.90;;;;;;4181761;28;20040;-92
2022/07/02 04:46:11;;;;;;;4.97;2.35;;;14.90;99.90;;;;;;4164253;28;20566;-92
2022/07/02 04:48:43;;;;;;;3.08;1.30;;;14.80;99.90;;;;;;4148263;28;20568;-91
2022/07/02 04:50:59;;;;;;;7.57;1.77;;;14.90;99.90;;;;;;4148891;28;20049;-92
2022/07/02 04:53:27;;;;;;;7.13;1.77;;;14.90;99.90;;;;;;4149390;28;20049;-92
2022/07/02 04:55:29;;;;;;;6.85;1.80;;;15.00;99.90;;;;;;4165774;28;20046;-92
2022/07/02 04:57:30;;;;;;;3.42;1.88;;;15.00;99.90;;;;;;4165691;28;20049;-92
2022/07/02 04:59:44;;;;;;;4.63;1.60;;;15.10;99.90;;;;;;4165826;28;20049;-92
2022/07/02 05:01:47;;;;;;;5.25;2.17;;;15.10;99.90;;;;;;4165219;28;20072;-92
2022/07/02 05:04:03;;;;;;;6.57;2.08;;;15.20;99.90;;;;;;4165107;28;20084;-92
2022/07/02 05:06:04;;;;;;;6.13;2.40;;;15.20;99.90;;;;;;4164981;28;20508;-92
2022/07/02 05:08:06;;;;;;;4.72;2.00;;;15.30;99.90;;;;;;4148556;28;20056;-92
2022/07/02 05:10:09;;;;;;;7.43;2.00;;;15.30;99.90;;;;;;4148196;28;20128;-92
2022/07/02 05:12:12;;;;;;;6.03;2.10;;;15.40;99.90;;;;;;4164642;28;20204;-92
2022/07/02 05:14:14;;;;;;;5.15;2.58;;;15.40;99.90;;;;;;4148315;28;20150;-92
2022/07/02 05:16:17;;;;;;;5.82;2.97;;;15.50;99.90;;;;;;4165813;28;20049;-92
2022/07/02 05:18:22;;;;;;;7.47;2.58;;;15.50;99.90;;;;;;4168097;28;20107;-92
2022/07/02 05:20:45;;;;;;;5.10;2.72;;;15.50;99.90;;;;;;4168283;28;20132;-92
2022/07/02 05:22:48;;;;;;;8.10;3.67;;;15.50;99.90;;;;;;4168142;28;20401;-92
2022/07/02 05:24:50;;;;;;;7.53;3.42;;;15.60;99.90;;;;;;4167511;28;20045;-92
2022/07/02 05:26:53;;;;;;;6.95;4.63;;;15.60;99.90;;;;;;4168451;28;20073;-92
2022/07/02 05:28:54;;;;;;;6.90;3.35;;;15.60;99.90;;;;;;4168289;28;20045;-93
2022/07/02 05:30:55;;;;;;;6.95;3.40;;;15.60;99.90;;;;;;4169291;28;20099;-91
2022/07/02 05:33:04;;;;;;;7.78;3.90;;;15.60;99.90;;;;;;4168615;28;20136;-92
2022/07/02 05:35:37;;;;;;;5.10;3.00;;;15.60;99.90;;;;;;4168632;28;20056;-92
2022/07/02 05:37:39;;;;;;;8.07;3.60;;;15.60;99.90;;;;;;4167554;28;20049;-91
2022/07/02 05:39:40;;;;;;;8.77;3.40;;;15.60;99.90;;;;;;4167420;28;20041;-92
2022/07/02 05:41:43;;;;;;;8.30;2.90;;;15.70;99.90;;;;;;4167273;28;20052;-92
2022/07/02 05:43:45;;;;;;;7.57;3.00;;;15.60;99.90;;;;;;4183992;28;20475;-92
2022/07/02 05:45:48;;;;;;;5.05;3.17;;;15.70;99.90;;;;;;4167295;28;20144;-92
2022/07/02 05:47:51;;;;;;;7.15;2.70;;;15.80;99.90;;;;;;4167756;28;20132;-91
2022/07/02 05:50:09;;;;;;;9.80;3.05;;;15.80;99.90;;;;;;4167758;28;20398;-93
2022/07/02 05:52:11;;;;;;;7.03;2.90;;;15.80;99.90;;;;;;4160757;28;20037;-92
2022/07/02 05:54:14;;;;;;;7.82;2.90;;;15.90;99.90;;;;;;4151793;28;20326;-92
2022/07/02 05:56:23;;;;;;;6.22;3.05;;;15.90;99.90;;;;;;4167406;28;20490;-92
2022/07/02 05:58:31;;;;;;;6.60;2.78;;;15.90;99.90;;;;;;4166973;28;20045;-91
2022/07/02 06:00:56;;;;;;;7.28;3.30;;;15.90;99.90;;;;;;4167083;28;20053;-92
2022/07/02 06:02:56;;;;;;;8.48;2.63;;;16.00;99.90;;;;;;4166140;28;20087;-88
2022/07/02 06:04:57;;;;;;;9.45;2.60;;;16.00;99.90;;;;;;4183473;28;20036;-89
2022/07/02 06:09:20;;;;;;;5.60;2.72;;;16.10;99.90;;;;;;4182258;28;20136;-88
2022/07/02 06:11:20;;;;;;;8.25;3.25;;;16.10;99.90;;;;;;4182492;28;20102;-89
2022/07/02 06:13:21;;;;;;;9.90;2.70;;;16.20;99.90;;;;;;4181890;28;20045;-88
2022/07/02 06:15:31;;;;;;;8.52;3.55;;;16.20;99.90;;;;;;4182843;28;20490;-92
2022/07/02 06:17:49;;;;;;;7.30;3.00;;;16.30;99.90;;;;;;4191287;28;20032;-92
2022/07/02 06:19:53;;;;;;;5.35;2.40;;;16.30;99.90;;;;;;4183682;28;20048;-92
2022/07/02 06:22:03;;;;;;;5.65;2.78;;;16.40;99.90;;;;;;4173895;28;20524;-92
2022/07/02 06:24:04;;;;;;;5.30;2.47;;;16.50;99.90;;;;;;4167088;28;20099;-92
2022/07/02 06:26:07;;;;;;;6.75;2.30;;;16.50;99.90;;;;;;4167287;28;20376;-92
2022/07/02 06:28:19;;;;;;;7.50;2.20;;;16.50;99.90;;;;;;4168583;28;20048;-92
2022/07/02 06:30:37;;;;;;;3.75;2.00;;;16.60;99.90;;;;;;4166988;28;20501;-91
2022/07/02 06:33:00;;;;;;;4.30;2.50;;;16.60;99.90;;;;;;4167158;28;20110;-93
2022/07/02 06:35:08;;;;;;;6.45;2.92;;;16.70;99.90;;;;;;4166720;28;20041;-92
2022/07/02 06:37:27;;;;;;;8.40;2.53;;;16.80;99.90;;;;;;4166696;28;20049;-92
2022/07/02 06:39:28;;;;;;;;;;;16.80;99.90;;;;;;4167248;28;20042;-92
2022/07/02 06:44:19;;;;;;;5.20;1.85;;;16.90;99.90;;;;;;4182833;28;20053;-92
2022/07/02 06:46:21;;;;;;;6.43;3.03;;;17.10;99.90;;;;;;4182970;28;20057;-92
2022/07/02 06:48:25;;;;;;;3.85;1.70;;;17.10;99.90;;;;;;4166887;28;20295;-92
2022/07/02 06:50:26;;;;;;;7.75;1.80;;;17.10;99.90;;;;;;4167103;28;20050;-92
2022/07/02 06:52:29;;;;;;;4.22;1.70;;;17.30;99.90;;;;;;4166688;28;20092;-92
2022/07/02 06:54:35;;;;;;;7.35;1.83;;;17.40;99.90;;;;;;4182696;28;20100;-92
2022/07/02 06:56:43;;;;;;;5.25;1.88;;;17.40;99.80;;;;;;4183771;28;20076;-92
2022/07/02 06:59:13;;;;;;;9.93;2.65;;;17.40;99.60;;;;;;4166820;28;20045;-92
2022/07/02 07:01:13;;;;;;;8.05;1.70;;;17.40;99.40;;;;;;4151144;28;20104;-91
2022/07/02 07:03:22;;;;;;;6.47;1.85;;;17.50;99.50;;;;;;4166515;28;20042;-92
2022/07/02 07:05:23;;;;;;;4.95;2.80;;;17.60;99.50;;;;;;4150317;28;20510;-92
2022/07/02 07:07:27;;;;;;;3.13;1.83;;;17.60;99.10;;;;;;4150368;28;20119;-91
2022/07/02 07:09:35;;;;;;;3.30;1.40;;;17.70;99.10;;;;;;4153848;28;20120;-92
2022/07/02 07:11:36;;;;;;;6.95;1.52;;;17.70;98.80;;;;;;4165518;28;20045;-86
2022/07/02 07:13:37;;;;;;;3.10;1.27;;;17.70;98.40;;;;;;4181354;28;20473;-86
2022/07/02 07:15:38;;;;;;;6.05;1.50;;;17.70;97.70;;;;;;4179250;28;20120;-85
2022/07/02 07:17:38;;;;;;;5.75;1.65;;;17.80;97.70;;;;;;4179623;28;20045;-86
2022/07/02 07:19:39;;;;;;;5.93;1.60;;;17.80;97.70;;;;;;4181951;28;20041;-86
2022/07/02 07:21:41;;;;;;;3.45;1.10;;;17.90;97.40;;;;;;4182212;28;20072;-86
2022/07/02 07:23:42;;;;;;;2.92;1.00;;;17.90;97.00;;;;;;4169709;28;20107;-86
2022/07/02 07:25:43;;;;;;;5.05;1.10;;;18.00;96.70;;;;;;4177182;28;20049;-86
2022/07/02 07:27:44;;;;;;;6.22;1.38;;;18.00;96.70;;;;;;4180667;28;20053;-86
2022/07/02 07:29:45;;;;;;;3.72;1.00;;;18.00;96.00;;;;;;4180838;28;20127;-86
2022/07/02 07:31:45;;;;;;;3.72;1.25;;;18.10;95.70;;;;;;4180970;28;20116;-85
2022/07/02 07:33:50;;;;;;;5.18;1.25;;;18.10;95.40;;;;;;4182193;28;20124;-86
2022/07/02 07:35:51;;;;;;;3.70;1.55;;;18.10;95.50;;;;;;4170476;28;20099;-86
2022/07/02 07:37:59;;;;;;;4.95;1.25;;;18.20;95.30;;;;;;4163773;28;20528;-85
2022/07/02 07:40:00;;;;;;;2.53;1.20;;;18.30;95.20;;;;;;4165725;28;20490;-86
2022/07/02 07:42:01;;;;;;;4.93;1.00;;;18.40;95.30;;;;;;4165662;28;20139;-86
2022/07/02 07:44:03;;;;;;;4.50;1.92;;;18.40;95.00;;;;;;4171599;28;20049;-86
2022/07/02 07:46:03;;;;;;;4.25;1.10;;;18.50;95.00;;;;;;4179223;28;20065;-86
2022/07/02 07:48:04;;;;;;;2.22;1.20;;;18.70;95.10;;;;;;4179238;28;20475;-86
2022/07/02 07:50:07;;;;;;;4.80;1.40;;;18.70;94.50;;;;;;4181812;28;20041;-87
2022/07/02 07:52:08;;;;;;;1.85;0.70;;;18.70;94.00;;;;;;4179966;28;20515;-83
2022/07/02 07:54:08;;;;;;;4.28;0.90;;;18.70;93.30;;;;;;4163539;28;20041;-84
2022/07/02 07:56:09;;;;;;;3.15;1.02;;;18.70;93.40;;;;;;4181747;28;20056;-84
2022/07/02 07:58:10;;;;;;;2.92;0.80;;;18.80;92.90;;;;;;4163682;28;20486;-83
2022/07/02 08:00:11;;;;;;;1.77;1.08;;;18.80;92.90;;;;;;4146648;28;20092;-84
2022/07/02 08:02:12;;;;;;;3.33;1.00;;;18.70;92.40;;;;;;4180504;28;20108;-84
2022/07/02 08:04:13;;;;;;;3.38;1.17;;;18.80;92.00;;;;;;4180670;28;20041;-84
2022/07/02 08:06:14;;;;;;;3.45;1.25;;;18.80;91.90;;;;;;4180035;28;20051;-83
2022/07/02 08:08:14;;;;;;;3.13;0.90;;;19.10;92.00;;;;;;4181506;28;20044;-84
2022/07/02 08:10:16;;;;;;;6.10;1.10;;;18.90;91.40;;;;;;4180696;28;20409;-84
2022/07/02 08:12:16;;;;;;;3.03;1.13;;;19.00;91.90;;;;;;4181165;28;20041;-85
2022/07/02 08:14:17;;;;;;;0.98;0.60;;;19.10;90.80;;;;;;4180567;28;20029;-85
2022/07/02 08:16:18;;;;;;;3.92;1.00;;;19.10;90.70;;;;;;4180072;28;20585;-87
2022/07/02 08:18:19;;;;;;;2.10;0.90;;;19.30;90.70;;;;;;4181034;28;20088;-84
2022/07/02 08:20:20;;;;;;;2.58;0.82;;;19.20;89.60;;;;;;4181671;28;20559;-83
2022/07/02 08:22:21;;;;;;;3.88;0.85;;;19.30;90.00;;;;;;4181106;28;20190;-83
2022/07/02 08:24:23;;;;;;;1.10;0.70;;;19.30;89.70;;;;;;4180410;28;20057;-89
2022/07/02 08:26:23;;;;;;;3.55;1.05;;;19.40;89.80;;;;;;4163627;28;20521;-87
2022/07/02 08:28:24;;;;;;;2.50;0.57;;;19.50;89.20;;;;;;4179952;28;20051;-87
2022/07/02 08:30:25;;;;;;;8.55;1.45;;;19.50;89.10;;;;;;4180220;28;20087;-87
2022/07/02 08:32:26;;;;;;;2.28;0.70;;;19.60;88.90;;;;;;4180731;28;20044;-86
2022/07/02 08:34:27;;;;;;;2.83;0.90;;;19.50;86.60;;;;;;4181066;28;20044;-87
2022/07/02 08:36:28;;;;;;;2.45;0.68;;;19.60;87.80;;;;;;4180586;28;20045;-84
2022/07/02 08:38:29;;;;;;;5.00;1.48;;;19.60;87.60;;;;;;4179603;28;20472;-85
2022/07/02 08:40:30;;;;;;;4.57;0.90;;;19.60;87.90;;;;;;4179903;28;20076;-85
2022/07/02 08:42:32;;;;;;;2.25;1.00;;;19.70;87.20;;;;;;4184053;28;20045;-85
2022/07/02 08:44:33;;;;;;;2.33;0.70;;;20.00;87.30;;;;;;4179554;28;20060;-85
2022/07/02 08:46:38;;;;;;;4.35;1.30;;;20.10;86.70;;;;;;4180360;28;20414;-85
2022/07/02 08:48:40;;;;;;;2.85;0.85;;;20.30;86.50;;;;;;4180526;28;20072;-85
2022/07/02 08:50:41;;;;;;;1.63;0.60;;;20.30;87.10;;;;;;4180781;28;20037;-85
2022/07/02 08:52:43;;;;;;;0.90;0.65;;;20.30;85.90;;;;;;4179387;28;20092;-85
2022/07/02 08:54:45;;;;;;;2.47;0.70;;;20.30;85.00;;;;;;4180663;28;20045;-85
2022/07/02 08:56:46;;;;;;;3.03;0.80;;;20.20;83.10;;;;;;4180652;28;20044;-85
2022/07/02 08:58:50;;;;;;;2.75;0.60;;;20.10;83.60;;;;;;4162814;28;20469;-85
2022/07/02 09:00:50;;;;;;;2.42;0.82;;;20.10;84.10;;;;;;4179706;28;20052;-85
2022/07/02 09:02:53;;;;;;;2.97;1.10;;;20.10;83.40;;;;;;4180710;28;20037;-84
2022/07/02 09:04:56;;;;;;;2.17;0.70;;;20.20;83.40;;;;;;4181144;28;20087;-85
2022/07/02 09:07:00;;;;;;;1.52;0.50;;;20.40;82.80;;;;;;4180742;28;20132;-85
2022/07/02 09:09:00;;;;;;;3.38;0.70;;;20.40;82.00;;;;;;4180768;28;20045;-85
2022/07/02 09:11:03;;;;;;;1.75;0.85;;;20.50;82.40;;;;;;4180749;28;20170;-85
2022/07/02 09:13:06;;;;;;;3.40;1.35;;;20.60;81.80;;;;;;4180762;28;20029;-85
2022/07/02 09:15:07;;;;;;;3.38;0.68;;;20.70;82.20;;;;;;4179396;28;20068;-85
2022/07/02 09:17:12;;;;;;;1.02;0.57;;;20.70;81.00;;;;;;4179609;28;20539;-85
2022/07/02 09:19:13;;;;;;;1.48;0.40;;;20.90;77.60;;;;;;4181375;28;20413;-86
2022/07/02 09:21:14;;;;;;;1.92;0.50;;;20.90;77.30;;;;;;4181088;28;20159;-85
2022/07/02 09:23:20;;;;;;;1.15;0.40;;;21.00;77.60;;;;;;4163109;28;20473;-85
2022/07/02 09:25:25;;;;;;;1.70;0.47;;;21.00;76.60;;;;;;4179307;28;20055;-84
2022/07/02 09:27:27;;;;;;;1.35;0.50;;;21.20;75.70;;;;;;4163304;28;20049;-85
2022/07/02 09:29:29;;;;;;;2.63;0.45;;;21.40;74.70;;;;;;4179607;28;20071;-85
2022/07/02 09:31:31;;;;;;;2.38;0.45;;;21.40;73.20;;;;;;4179430;28;20534;-85
2022/07/02 09:33:32;;;;;;;1.13;0.50;;;21.40;70.80;;;;;;4179149;28;20041;-85
2022/07/02 09:35:34;;;;;;;0.57;0.30;;;21.40;70.30;;;;;;4180331;28;20044;-85
2022/07/02 09:37:35;;;;;;;4.15;0.40;;;21.40;70.00;;;;;;4180529;28;20505;-85
2022/07/02 09:39:35;;;;;;;1.17;0.40;;;21.40;69.40;;;;;;4180739;28;20048;-85
2022/07/02 09:41:43;;;;;;;0.90;0.38;;;21.50;69.40;;;;;;4162771;28;20060;-85
2022/07/02 09:43:45;;;;;;;3.47;0.47;;;21.70;69.00;;;;;;4179188;28;20103;-85
2022/07/02 09:45:45;;;;;;;1.75;0.80;;;21.70;69.50;;;;;;4166205;28;20517;-85
2022/07/02 09:47:49;;;;;;;2.08;0.50;;;21.80;67.50;;;;;;4178797;28;20056;-85
2022/07/02 09:49:51;;;;;;;3.45;0.80;;;21.80;67.20;;;;;;4180448;28;20091;-85
2022/07/02 09:51:53;;;;;;;1.08;0.30;;;21.80;65.80;;;;;;4179366;28;20037;-84
2022/07/02 09:53:55;;;;;;;1.20;0.40;;;21.90;66.20;;;;;;4180423;28;20049;-85
2022/07/02 09:55:56;;;;;;;2.42;0.63;;;21.90;66.10;;;;;;4176094;28;20045;-85
2022/07/02 09:57:59;;;;;;;1.90;0.70;;;21.90;66.20;;;;;;4180345;28;20087;-85
2022/07/02 10:00:07;;;;;;;0.90;0.30;;;21.90;65.50;;;;;;4180090;28;20048;-85
2022/07/02 10:02:22;;;;;;;2.95;0.98;;;21.90;62.20;;;;;;4182303;28;20877;-85
2022/07/02 10:04:31;;;;;;;1.33;0.40;;;22.00;63.80;;;;;;4183676;28;20398;-84
2022/07/02 10:06:32;;;;;;;1.25;0.43;;;22.10;64.20;;;;;;4184022;28;20051;-83
2022/07/02 10:08:33;;;;;;;2.42;0.50;;;22.30;64.70;;;;;;4183281;28;20073;-82
2022/07/02 10:10:39;;;;;;;3.00;0.50;;;22.20;63.20;;;;;;4183385;28;20059;-83
2022/07/02 10:12:42;;;;;;;1.65;0.40;;;22.40;63.80;;;;;;4183582;28;20116;-82
2022/07/02 10:14:47;;;;;;;0.77;0.30;;;22.50;63.70;;;;;;4183499;28;20511;-83
2022/07/02 10:16:49;;;;;;;0.93;0.30;;;22.60;63.30;;;;;;4179077;28;20489;-84
2022/07/02 10:18:51;;;;;;;1.80;0.47;;;22.80;63.30;;;;;;4176960;28;20358;-84
2022/07/02 10:20:56;;;;;;;4.22;1.02;;;23.00;62.60;;;;;;4173697;28;20040;-84
2022/07/02 10:23:01;;;;;;;2.03;0.82;;;23.20;62.40;;;;;;4183367;28;20734;-84
2022/07/02 10:25:04;;;;;;;2.75;0.70;;;23.20;60.90;;;;;;4183410;28;20045;-85
2022/07/02 10:27:05;;;;;;;1.35;0.30;;;23.20;60.70;;;;;;4183333;28;20045;-85
2022/07/02 10:29:08;;;;;;;1.00;0.40;;;23.10;61.70;;;;;;4182041;28;20120;-84
2022/07/02 10:31:18;;;;;;;1.67;0.38;;;23.30;61.30;;;;;;4165452;28;20065;-85
2022/07/02 10:33:30;;;;;;;1.73;0.50;;;23.30;60.60;;;;;;4182933;28;20111;-84
2022/07/02 10:35:34;;;;;;;1.20;0.30;;;23.20;60.80;;;;;;4173552;28;20128;-86
2022/07/02 10:37:42;;;;;;;2.50;0.40;;;23.30;61.70;;;;;;4165206;28;20049;-87
2022/07/02 10:39:43;;;;;;;2.15;0.45;;;23.10;58.30;;;;;;4149156;28;20395;-87
2022/07/02 10:41:44;;;;;;;2.67;0.40;;;23.10;59.60;;;;;;4166171;28;20044;-87
2022/07/02 10:43:46;;;;;;;1.33;0.50;;;23.10;59.80;;;;;;4177250;28;20560;-86
2022/07/02 10:45:47;;;;;;;4.80;0.52;;;23.30;60.20;;;;;;4181618;28;20404;-87
2022/07/02 10:47:59;;;;;;;1.17;0.40;;;23.50;60.70;;;;;;4164715;28;20049;-87
2022/07/02 10:50:01;;;;;;;1.65;0.40;;;23.70;59.70;;;;;;4183224;28;20119;-90
2022/07/02 10:52:03;;;;;;;0.65;0.65;;;23.80;59.50;;;;;;4182730;28;20497;-90
2022/07/02 10:54:08;;;;;;;4.32;0.40;;;23.60;57.50;;;;;;4183364;28;20465;-90
2022/07/02 10:56:09;;;;;;;0.90;0.40;;;23.60;58.30;;;;;;4181939;28;20136;-90
2022/07/02 10:58:21;;;;;;;0.77;0.43;;;23.50;57.50;;;;;;4183676;28;20041;-89
2022/07/02 11:00:38;;;;;;;1.38;0.30;;;23.40;56.20;;;;;;4183518;28;20518;-88
2022/07/02 11:02:38;;;;;;;2.33;0.40;;;23.20;56.30;;;;;;4181852;28;20053;-90